createdAt,value
2019-06-08T00:04:33.759Z,100314.45
2019-06-08T00:09:37.310Z,100303.88
2019-06-08T00:14:40.857Z,100298.74
2019-06-08T00:19:44.304Z,100278.17
2019-06-08T00:24:48.243Z,100300.81
2019-06-08T00:29:51.714Z,100279.02
2019-06-08T00:34:55.355Z,100302.77
2019-06-08T00:39:58.810Z,100302.77
2019-06-08T00:45:02.365Z,100326.55
2019-06-08T00:50:07.502Z,100329.73
2019-06-08T00:55:11.323Z,100333.38
2019-06-08T01:00:15.528Z,100327.66
2019-06-08T01:05:19.875Z,100296.56
2019-06-08T01:10:25.552Z,100325.94
2019-06-08T01:15:33.817Z,100341.80
2019-06-08T01:20:34.608Z,100327.05
2019-06-08T01:25:38.448Z,100335.44
2019-06-08T01:30:41.932Z,100353.36
2019-06-08T01:35:45.390Z,100362.39
2019-06-08T01:40:48.858Z,100337.89
2019-06-08T01:45:52.685Z,100364.09
2019-06-08T01:50:56.144Z,100386.98
2019-06-08T01:55:59.645Z,100391.12
2019-06-08T02:01:03.700Z,100390.66
2019-06-08T02:06:07.213Z,100388.91
2019-06-08T02:11:10.633Z,100396.72
2019-06-08T02:16:14.110Z,100399.51
2019-06-08T02:21:17.752Z,100420.00
2019-06-08T02:26:21.486Z,100423.17
2019-06-08T02:31:24.972Z,100425.86
2019-06-08T02:36:29.429Z,100433.63
2019-06-08T02:41:35.187Z,100444.35
2019-06-08T02:46:40.451Z,100452.54
2019-06-08T02:51:44.469Z,100465.08
2019-06-08T02:56:49.938Z,100471.05
2019-06-08T03:01:55.858Z,100484.95
2019-06-08T03:07:01.324Z,100489.08
2019-06-08T03:12:05.577Z,100483.37
2019-06-08T03:17:09.053Z,100506.27
2019-06-08T03:22:12.534Z,100530.64
2019-06-08T03:27:16.279Z,100539.88
2019-06-08T03:32:19.764Z,100550.61
2019-06-08T03:37:23.213Z,100564.15
2019-06-08T03:42:26.685Z,100590.46
2019-06-08T03:47:30.399Z,100596.78
2019-06-08T03:52:35.426Z,100603.37
2019-06-08T03:57:40.423Z,100617.77
2019-06-08T04:02:46.637Z,100631.28
2019-06-08T04:07:50.458Z,100641.15
2019-06-08T04:12:54.213Z,100646.13
2019-06-08T04:17:57.678Z,100645.03
2019-06-08T04:23:01.296Z,100650.39
2019-06-08T04:28:05.157Z,100665.14
2019-06-08T04:33:08.617Z,100672.44
2019-06-08T04:38:12.087Z,100665.73
2019-06-08T04:43:15.551Z,100694.63
2019-06-08T04:48:19.054Z,100682.80
2019-06-08T04:53:22.505Z,100700.34
2019-06-08T04:58:25.978Z,100708.48
2019-06-08T05:03:29.455Z,100697.76
2019-06-08T05:08:33.077Z,100710.70
2019-06-08T05:13:36.534Z,100720.30
2019-06-08T05:18:41.279Z,100717.86
2019-06-08T05:23:45.584Z,100733.59
2019-06-08T05:28:49.590Z,100735.88
2019-06-08T05:33:53.170Z,100745.16
2019-06-08T05:38:56.648Z,100747.84
2019-06-08T05:44:00.110Z,100773.70
2019-06-08T05:49:04.583Z,100762.24
2019-06-08T05:54:08.111Z,100780.39
2019-06-08T05:59:11.577Z,100786.70
2019-06-08T06:04:15.154Z,100786.86
2019-06-08T06:09:18.916Z,100797.58
2019-06-08T06:14:22.376Z,100801.84
2019-06-08T06:19:25.849Z,100811.81
2019-06-08T06:24:29.341Z,100816.20
2019-06-08T06:29:32.992Z,100830.45
2019-06-08T06:34:36.535Z,100830.09
2019-06-08T06:39:40.007Z,100848.46
2019-06-08T06:44:45.722Z,100840.91
2019-06-08T06:49:48.867Z,100863.27
2019-06-08T06:54:53.311Z,100863.27
2019-06-08T06:59:56.811Z,100870.95
2019-06-08T07:05:00.589Z,100880.42
2019-06-08T07:10:07.794Z,100877.36
2019-06-08T07:15:11.604Z,100878.27
2019-06-08T07:20:15.144Z,100895.59
2019-06-08T07:25:18.599Z,100892.70
2019-06-08T07:30:23.875Z,100893.55
2019-06-08T07:35:27.315Z,100913.09
2019-06-08T07:40:30.785Z,100916.09
2019-06-08T07:45:34.255Z,100924.98
2019-06-08T07:50:37.738Z,100921.45
2019-06-08T07:55:41.203Z,100927.44
2019-06-08T08:00:44.670Z,100924.05
2019-06-08T08:05:48.246Z,100952.10
2019-06-08T08:10:52.381Z,100943.67
2019-06-08T08:15:58.753Z,100969.09
2019-06-08T08:21:09.125Z,100953.16
2019-06-08T08:26:06.412Z,100962.34
2019-06-08T08:31:11.446Z,100972.39
2019-06-08T08:36:15.424Z,100966.50
2019-06-08T08:41:18.899Z,100987.97
2019-06-08T08:46:22.387Z,100992.52
2019-06-08T08:51:27.942Z,100987.47
2019-06-08T08:56:31.263Z,100994.02
2019-06-08T09:01:34.713Z,101003.41
2019-06-08T09:06:38.375Z,101006.09
2019-06-08T09:11:41.988Z,101011.71
2019-06-08T09:16:47.983Z,101017.92
2019-06-08T09:21:52.523Z,101035.09
2019-06-08T09:27:00.073Z,101063.58
2019-06-08T09:32:03.269Z,101044.81
2019-06-08T09:37:08.056Z,101036.27
2019-06-08T09:42:12.279Z,101068.35
2019-06-08T09:47:17.948Z,101089.54
2019-06-08T09:52:21.758Z,101090.86
2019-06-08T09:57:25.390Z,101081.54
2019-06-08T10:02:28.868Z,101106.65
2019-06-08T10:07:32.460Z,101099.62
2019-06-08T10:12:38.226Z,101113.73
2019-06-08T10:17:41.238Z,101110.84
2019-06-08T10:22:44.713Z,101114.55
2019-06-08T10:27:48.169Z,101127.73
2019-06-08T10:32:51.909Z,101125.30
2019-06-08T10:37:57.775Z,101128.28
2019-06-08T10:43:02.735Z,101153.04
2019-06-08T10:48:06.396Z,101134.52
2019-06-08T10:53:11.908Z,101150.25
2019-06-08T10:58:15.210Z,101167.27
2019-06-08T11:03:18.857Z,101175.98
2019-06-08T11:08:22.387Z,101175.33
2019-06-08T11:13:28.122Z,101187.73
2019-06-08T11:18:31.149Z,101186.20
2019-06-08T11:23:34.673Z,101183.26
2019-06-08T11:28:38.400Z,101198.89
2019-06-08T11:33:42.430Z,101208.94
2019-06-08T11:38:47.801Z,101216.03
2019-06-08T11:43:51.135Z,101228.28
2019-06-08T11:48:54.608Z,101209.52
2019-06-08T11:53:59.429Z,101229.13
2019-06-08T11:59:03.645Z,101234.44
2019-06-08T12:04:07.847Z,101248.42
2019-06-08T12:09:12.726Z,101246.24
2019-06-08T12:14:17.783Z,101256.89
2019-06-08T12:19:21.681Z,101254.70
2019-06-08T12:24:40.563Z,101256.70
2019-06-08T12:29:30.363Z,101257.23
2019-06-08T12:34:34.095Z,101248.42
2019-06-08T12:39:38.706Z,101257.22
2019-06-08T12:44:43.735Z,101252.63
2019-06-08T12:49:48.417Z,101258.14
2019-06-08T12:55:02.507Z,101257.06
2019-06-08T12:59:59.797Z,101246.41
2019-06-08T13:05:02.373Z,101257.73
2019-06-08T13:10:07.176Z,101269.88
2019-06-08T13:15:11.629Z,101273.43
2019-06-08T13:20:22.092Z,101279.45
2019-06-08T13:25:37.323Z,101262.54
2019-06-08T13:30:32.417Z,101277.22
2019-06-08T13:35:35.774Z,101272.61
2019-06-08T13:40:40.294Z,101276.27
2019-06-08T13:45:43.936Z,101275.52
2019-06-08T13:50:49.947Z,101258.34
2019-06-08T13:55:56.531Z,101268.49
2019-06-08T14:00:59.747Z,101288.59
2019-06-08T14:06:03.284Z,101290.28
2019-06-08T14:11:08.282Z,101281.15
2019-06-08T14:16:11.861Z,101284.91
2019-06-08T14:21:15.348Z,101286.97
2019-06-08T14:26:20.156Z,101283.30
2019-06-08T14:31:25.604Z,101293.98
2019-06-08T14:36:30.435Z,101353.32
2019-06-08T14:41:34.260Z,101344.52
2019-06-08T14:46:41.105Z,101333.55
2019-06-08T14:51:52.638Z,101328.28
2019-06-08T14:56:57.856Z,101322.19
2019-06-08T15:02:01.370Z,101302.64
2019-06-08T15:07:04.983Z,101336.52
2019-06-08T15:12:09.409Z,101336.52
2019-06-08T15:17:13.083Z,101408.87
2019-06-08T15:22:18.800Z,101424.60
2019-06-08T15:27:23.640Z,101425.73
2019-06-08T15:32:28.276Z,101425.55
2019-06-08T15:37:32.456Z,101427.02
2019-06-08T15:42:36.033Z,101405.55
2019-06-08T15:47:40.934Z,101398.41
2019-06-08T15:52:44.481Z,101391.64
2019-06-08T15:57:47.954Z,101401.73
2019-06-08T16:02:51.585Z,101421.21
2019-06-08T16:07:55.067Z,101422.55
2019-06-08T16:12:58.771Z,101447.33
2019-06-08T16:18:02.183Z,101438.20
2019-06-08T16:23:05.753Z,101445.80
2019-06-08T16:28:09.227Z,101443.50
2019-06-08T16:33:13.032Z,101454.03
2019-06-08T16:38:16.974Z,101454.91
2019-06-08T16:43:20.485Z,101452.34
2019-06-08T16:48:24.030Z,101463.92
2019-06-08T16:53:27.509Z,101455.02
2019-06-08T16:58:32.123Z,101455.19
2019-06-08T17:03:36.885Z,101458.46
2019-06-08T17:08:42.074Z,101468.89
2019-06-08T17:13:46.011Z,101473.19
2019-06-08T17:18:49.489Z,101463.17
2019-06-08T17:23:52.986Z,101470.70
2019-06-08T17:28:56.476Z,101471.66
2019-06-08T17:33:59.973Z,101484.88
2019-06-08T17:39:04.679Z,101491.41
2019-06-08T17:44:08.484Z,101489.87
2019-06-08T17:49:11.976Z,101499.64
2019-06-08T17:54:15.448Z,101507.77
2019-06-08T17:59:18.990Z,101514.47
2019-06-08T18:04:22.477Z,101513.80
2019-06-08T18:09:28.006Z,101501.72
2019-06-08T18:14:31.157Z,101511.22
2019-06-08T18:19:34.638Z,101517.62
2019-06-08T18:24:41.929Z,101516.64
2019-06-08T18:29:46.136Z,101522.50
2019-06-08T18:34:50.049Z,101517.41
2019-06-08T18:39:53.720Z,101504.47
2019-06-08T18:44:58.251Z,101527.75
2019-06-08T18:50:01.962Z,101534.30
2019-06-08T18:55:09.252Z,101535.52
2019-06-08T19:00:13.160Z,101547.31
2019-06-08T19:05:20.789Z,101547.39
2019-06-08T19:10:33.711Z,101560.18
2019-06-08T19:15:42.274Z,101564.68
2019-06-08T19:20:47.724Z,101571.48
2019-06-08T19:25:50.487Z,101576.09
2019-06-08T19:30:54.033Z,101565.66
2019-06-08T19:35:58.362Z,101571.32
2019-06-08T19:41:02.279Z,101580.33
2019-06-08T19:46:07.219Z,101590.38
2019-06-08T19:51:11.393Z,101584.92
2019-06-08T19:56:17.197Z,101602.36
2019-06-08T20:01:20.049Z,101604.67
2019-06-08T20:06:23.788Z,101604.84
2019-06-08T20:11:29.366Z,101618.84
2019-06-08T20:16:33.169Z,101622.49
2019-06-08T20:21:38.090Z,101620.66
2019-06-08T20:26:42.247Z,101624.48
2019-06-08T20:31:48.116Z,101633.39
2019-06-08T20:36:51.054Z,101633.39
2019-06-08T20:41:54.688Z,101636.93
2019-06-08T20:46:58.208Z,101646.64
2019-06-08T20:52:02.159Z,101636.56
2019-06-08T20:57:07.623Z,101651.57
2019-06-08T21:02:10.963Z,101645.30
2019-06-08T21:07:14.703Z,101648.06
2019-06-08T21:12:18.211Z,101650.94
2019-06-08T21:17:22.085Z,101650.57
2019-06-08T21:22:27.775Z,101661.67
2019-06-08T21:27:30.933Z,101663.30
2019-06-08T21:32:34.407Z,101657.77
2019-06-08T21:37:38.033Z,101660.14
2019-06-08T21:42:42.281Z,101650.83
2019-06-08T21:47:48.563Z,101652.94
2019-06-08T21:52:51.976Z,101659.08
2019-06-08T21:58:01.501Z,101659.45
2019-06-08T22:03:03.026Z,101640.41
2019-06-08T22:08:07.959Z,101661.24
2019-06-08T22:13:12.505Z,101666.12
2019-06-08T22:18:18.432Z,101673.48
2019-06-08T22:23:21.733Z,101675.47
2019-06-08T22:28:27.029Z,101674.90
2019-06-08T22:33:30.385Z,101683.70
2019-06-08T22:38:34.006Z,101686.07
2019-06-08T22:43:37.641Z,101691.44
2019-06-08T22:48:42.610Z,101695.00
2019-06-08T22:53:47.830Z,101697.56
2019-06-08T22:58:51.412Z,101694.47
2019-06-08T23:03:56.335Z,101708.93
2019-06-08T23:09:02.502Z,101706.33
2019-06-08T23:14:12.346Z,101709.90
2019-06-08T23:19:10.866Z,101716.68
2019-06-08T23:24:14.365Z,101715.34
2019-06-08T23:29:17.986Z,101715.50
2019-06-08T23:34:23.339Z,101722.69
2019-06-08T23:39:28.413Z,101720.87
2019-06-08T23:44:32.299Z,101710.25
2019-06-08T23:49:37.882Z,101721.34
2019-06-08T23:54:41.022Z,101724.14
2019-06-08T23:59:44.503Z,101727.00
